createdAt,value
2019-02-17T05:00:39.191Z,85.17
2019-02-17T05:01:31.055Z,87.85
2019-02-17T05:02:30.222Z,87.81
2019-02-17T05:03:30.453Z,87.18
2019-02-17T05:04:30.643Z,86.44
2019-02-17T05:05:30.804Z,87.38
2019-02-17T05:06:30.984Z,87.28
2019-02-17T05:07:31.152Z,87.18
2019-02-17T05:08:31.333Z,87.49
2019-02-17T05:09:31.505Z,87.81
2019-02-17T05:10:32.808Z,85.38
2019-02-17T05:11:31.815Z,84.23
2019-02-17T05:12:31.975Z,85.70
2019-02-17T05:13:32.146Z,85.38
2019-02-17T05:14:32.318Z,84.54
2019-02-17T05:15:32.470Z,83.49
2019-02-17T05:16:32.645Z,84.44
2019-02-17T05:17:32.787Z,83.91
2019-02-17T05:18:32.950Z,84.69
2019-02-17T05:19:33.145Z,85.85
2019-02-17T05:20:33.311Z,85.70
2019-02-17T05:21:33.484Z,86.05
2019-02-17T05:22:33.693Z,85.11
2019-02-17T05:23:33.857Z,85.17
2019-02-17T05:24:34.043Z,85.11
2019-02-17T05:25:34.234Z,86.33
2019-02-17T05:26:34.396Z,87.63
2019-02-17T05:27:34.610Z,87.74
2019-02-17T05:28:34.809Z,87.07
2019-02-17T05:29:35.038Z,85.60
2019-02-17T05:30:35.234Z,85.31
2019-02-17T05:31:35.424Z,85.70
2019-02-17T05:32:35.600Z,85.53
2019-02-17T05:33:35.785Z,83.84
2019-02-17T05:34:36.003Z,84.12
2019-02-17T05:35:36.179Z,84.69
2019-02-17T05:36:36.384Z,85.00
2019-02-17T05:37:36.608Z,84.65
2019-02-17T05:38:36.823Z,84.27
2019-02-17T05:39:37.019Z,84.37
2019-02-17T05:40:38.220Z,83.07
2019-02-17T05:41:37.375Z,82.75
2019-02-17T05:42:37.547Z,82.89
2019-02-17T05:43:37.768Z,82.68
2019-02-17T05:44:37.978Z,82.33
2019-02-17T05:45:38.180Z,82.89
2019-02-17T05:46:38.390Z,82.58
2019-02-17T05:47:38.571Z,82.58
2019-02-17T05:48:38.744Z,83.11
2019-02-17T05:49:38.969Z,82.89
2019-02-17T05:50:39.124Z,83.21
2019-02-17T05:51:39.304Z,82.79
2019-02-17T05:52:39.471Z,83.42
2019-02-17T05:53:39.653Z,83.42
2019-02-17T05:54:39.849Z,82.68
2019-02-17T05:55:40.030Z,83.31
2019-02-17T05:56:40.201Z,83.31
2019-02-17T05:57:40.364Z,83.63
2019-02-17T05:58:40.543Z,84.72
2019-02-17T05:59:40.756Z,87.68
2019-02-17T06:00:40.926Z,88.62
2019-02-17T06:01:41.079Z,88.79
2019-02-17T06:02:41.284Z,88.90
2019-02-17T06:03:41.453Z,89.74
2019-02-17T06:04:41.626Z,89.64
2019-02-17T06:05:41.827Z,89.74
2019-02-17T06:06:41.982Z,89.91
2019-02-17T06:07:42.160Z,90.12
2019-02-17T06:08:42.349Z,89.81
2019-02-17T06:09:42.533Z,88.86
2019-02-17T06:10:42.725Z,88.23
2019-02-17T06:11:42.895Z,87.70
2019-02-17T06:12:43.057Z,86.22
2019-02-17T06:13:43.215Z,86.08
2019-02-17T06:14:43.451Z,85.49
2019-02-17T06:15:43.614Z,84.44
2019-02-17T06:16:43.773Z,84.54
2019-02-17T06:17:43.955Z,84.23
2019-02-17T06:18:44.115Z,84.75
2019-02-17T06:19:44.278Z,85.49
2019-02-17T06:20:44.550Z,85.91
2019-02-17T06:21:44.597Z,86.33
2019-02-17T06:22:44.772Z,86.02
2019-02-17T06:23:44.941Z,86.12
2019-02-17T06:24:45.105Z,85.07
2019-02-17T06:25:45.285Z,85.38
2019-02-17T06:26:45.460Z,86.02
2019-02-17T06:27:45.635Z,85.80
2019-02-17T06:28:45.941Z,85.91
2019-02-17T06:29:45.994Z,86.65
2019-02-17T06:30:46.171Z,85.70
2019-02-17T06:31:46.346Z,86.76
2019-02-17T06:32:46.532Z,87.38
2019-02-17T06:33:46.741Z,87.28
2019-02-17T06:34:46.958Z,86.44
2019-02-17T06:35:47.152Z,87.70
2019-02-17T06:36:48.290Z,90.08
2019-02-17T06:37:47.592Z,89.56
2019-02-17T06:38:47.732Z,88.18
2019-02-17T06:39:47.896Z,86.08
2019-02-17T06:40:48.008Z,87.18
2019-02-17T06:41:48.119Z,87.60
2019-02-17T06:42:48.324Z,87.42
2019-02-17T06:43:48.566Z,87.85
2019-02-17T06:44:48.751Z,87.28
2019-02-17T06:45:49.023Z,87.42
2019-02-17T06:46:49.222Z,87.74
2019-02-17T06:47:49.280Z,87.32
2019-02-17T06:48:49.489Z,87.11
2019-02-17T06:49:49.699Z,87.32
2019-02-17T06:50:49.911Z,86.27
2019-02-17T06:51:50.083Z,86.37
2019-02-17T06:52:50.261Z,86.27
2019-02-17T06:53:50.439Z,85.85
2019-02-17T06:54:50.626Z,86.05
2019-02-17T06:55:50.842Z,87.00
2019-02-17T06:56:51.022Z,87.36
2019-02-17T06:57:51.229Z,87.88
2019-02-17T06:58:51.401Z,88.69
2019-02-17T06:59:52.650Z,89.74
2019-02-17T07:00:51.777Z,90.16
2019-02-17T07:01:55.849Z,91.22
2019-02-17T07:02:55.568Z,90.86
2019-02-17T07:03:53.315Z,90.86
2019-02-17T07:05:01.920Z,89.91
2019-02-17T07:05:53.707Z,90.23
2019-02-17T07:06:52.911Z,89.59
2019-02-17T07:07:53.144Z,89.03
2019-02-17T07:08:53.320Z,88.18
2019-02-17T07:09:53.599Z,87.49
2019-02-17T07:10:53.700Z,87.76
2019-02-17T07:11:56.894Z,87.28
2019-02-17T07:12:54.059Z,87.13
2019-02-17T07:13:54.278Z,86.71
2019-02-17T07:14:54.532Z,86.40
2019-02-17T07:15:54.713Z,86.19
2019-02-17T07:16:54.853Z,86.19
2019-02-17T07:17:54.978Z,86.61
2019-02-17T07:18:55.178Z,86.19
2019-02-17T07:19:55.940Z,86.19
2019-02-17T07:21:30.368Z,86.19
2019-02-17T07:21:55.789Z,87.66
2019-02-17T07:22:56.013Z,87.66
2019-02-17T07:23:56.218Z,87.76
2019-02-17T07:24:56.408Z,87.76
2019-02-17T07:25:56.607Z,87.41
2019-02-17T07:26:56.928Z,87.30
2019-02-17T07:27:57.020Z,86.43
2019-02-17T07:28:57.326Z,85.83
2019-02-17T07:29:57.464Z,85.16
2019-02-17T07:30:57.555Z,84.32
2019-02-17T07:31:57.805Z,83.69
2019-02-17T07:32:57.945Z,84.01
2019-02-17T07:33:58.258Z,83.80
2019-02-17T07:34:59.790Z,83.48
2019-02-17T07:35:58.613Z,84.18
2019-02-17T07:36:58.607Z,83.80
2019-02-17T07:37:58.732Z,83.65
2019-02-17T07:38:58.869Z,83.76
2019-02-17T07:39:59.120Z,84.18
2019-02-17T07:40:59.234Z,84.45
2019-02-17T07:41:59.511Z,85.72
2019-02-17T07:42:59.788Z,85.40
2019-02-17T07:43:59.810Z,84.98
2019-02-17T07:45:00.077Z,84.42
2019-02-17T07:46:00.112Z,84.25
2019-02-17T07:47:00.270Z,83.47
2019-02-17T07:48:00.439Z,83.86
2019-02-17T07:49:00.597Z,84.03
2019-02-17T07:50:00.786Z,83.61
2019-02-17T07:51:00.876Z,82.73
2019-02-17T07:52:01.468Z,82.62
2019-02-17T07:53:01.265Z,82.42
2019-02-17T07:54:01.902Z,82.42
2019-02-17T07:55:01.639Z,83.15
2019-02-17T07:56:01.921Z,82.83
2019-02-17T07:57:01.989Z,83.15
2019-02-17T07:58:02.184Z,82.94
2019-02-17T07:59:03.057Z,82.62
2019-02-17T08:00:02.639Z,81.85
2019-02-17T08:01:03.237Z,82.42
2019-02-17T08:02:02.897Z,82.73
2019-02-17T08:03:03.122Z,82.90
2019-02-17T08:04:03.315Z,83.11
2019-02-17T08:05:03.548Z,84.22
2019-02-17T08:06:03.755Z,83.18
2019-02-17T08:07:03.999Z,82.45
2019-02-17T08:08:04.203Z,82.34
2019-02-17T08:09:04.408Z,82.72
2019-02-17T08:10:04.654Z,82.40
2019-02-17T08:11:05.577Z,82.30
2019-02-17T08:12:05.040Z,82.68
2019-02-17T08:13:05.251Z,82.65
2019-02-17T08:14:05.434Z,81.81
2019-02-17T08:15:07.242Z,81.29
2019-02-17T08:16:05.876Z,82.02
2019-02-17T08:17:05.933Z,81.92
2019-02-17T08:18:06.152Z,82.33
2019-02-17T08:19:06.343Z,82.09
2019-02-17T08:20:06.543Z,82.15
2019-02-17T08:21:06.752Z,81.21
2019-02-17T08:22:06.957Z,80.06
2019-02-17T08:23:07.139Z,79.19
2019-02-17T08:24:07.316Z,79.71
2019-02-17T08:25:07.478Z,80.86
2019-02-17T08:26:07.670Z,79.78
2019-02-17T08:27:07.864Z,80.20
2019-02-17T08:28:08.049Z,79.36
2019-02-17T08:29:08.286Z,78.84
2019-02-17T08:30:08.482Z,79.53
2019-02-17T08:31:08.704Z,79.95
2019-02-17T08:32:08.884Z,79.53
2019-02-17T08:33:09.095Z,78.80
2019-02-17T08:34:09.274Z,78.56
2019-02-17T08:35:09.454Z,78.35
2019-02-17T08:36:09.635Z,78.77
2019-02-17T08:37:11.167Z,79.53
2019-02-17T08:38:09.953Z,79.53
2019-02-17T08:39:10.143Z,79.39
2019-02-17T08:40:10.347Z,79.39
2019-02-17T08:41:10.585Z,79.88
2019-02-17T08:42:10.803Z,79.57
2019-02-17T08:43:10.986Z,78.73
2019-02-17T08:44:11.238Z,79.36
2019-02-17T08:45:11.344Z,78.91
2019-02-17T08:46:11.551Z,78.38
2019-02-17T08:47:11.803Z,78.34
2019-02-17T08:48:11.899Z,78.24
2019-02-17T08:49:12.100Z,77.69
2019-02-17T08:50:12.304Z,76.72
2019-02-17T08:51:12.510Z,75.95
2019-02-17T08:52:12.704Z,76.43
2019-02-17T08:53:12.908Z,74.98
2019-02-17T08:54:13.094Z,74.22
2019-02-17T08:55:13.293Z,73.25
2019-02-17T08:56:13.492Z,72.17
2019-02-17T08:57:13.688Z,71.21
2019-02-17T08:58:13.839Z,70.21
2019-02-17T08:59:14.048Z,68.83
2019-02-17T09:15:49.473Z,64.71
2019-02-17T09:16:49.569Z,64.81
2019-02-17T09:17:49.722Z,64.51
2019-02-17T09:18:49.627Z,64.81
2019-02-17T09:19:49.762Z,63.78
2019-02-17T09:20:49.922Z,64.64
2019-02-17T09:21:50.047Z,65.99
2019-02-17T09:22:50.200Z,65.95
2019-02-17T09:23:50.340Z,64.78
2019-02-17T09:24:50.537Z,64.55
2019-02-17T09:25:50.723Z,64.14
2019-02-17T09:26:50.881Z,64.31
2019-02-17T09:27:51.008Z,63.49
2019-02-17T10:10:21.216Z,53.98
2019-02-17T10:11:21.303Z,54.64
2019-02-17T10:12:21.459Z,50.86
2019-02-17T10:13:21.579Z,51.22
2019-02-17T10:14:21.769Z,50.04
2019-02-17T10:15:21.926Z,51.62
2019-02-17T10:16:22.896Z,53.44
2019-02-17T10:17:22.364Z,47.92
2019-02-17T10:18:22.568Z,50.63
2019-02-17T10:19:22.762Z,51.30
2019-02-17T10:20:24.494Z,46.87
2019-02-17T10:21:23.109Z,46.33
2019-02-17T10:22:23.830Z,49.16
2019-02-17T10:23:24.249Z,45.31
2019-02-17T10:24:24.271Z,46.45
2019-02-17T10:25:24.146Z,47.06
2019-02-17T10:26:24.127Z,46.57
2019-02-17T10:27:24.527Z,47.19
2019-02-17T10:28:25.108Z,47.60
2019-02-17T10:29:24.838Z,48.08
2019-02-17T10:30:24.987Z,49.16
2019-02-17T10:31:25.173Z,48.02
2019-02-17T10:32:25.286Z,46.59
2019-02-17T10:33:25.968Z,45.08
2019-02-17T10:34:25.962Z,46.66
2019-02-17T10:35:26.085Z,47.96
2019-02-17T10:36:26.251Z,47.81
2019-02-17T10:37:26.259Z,46.95
2019-02-17T10:38:27.610Z,43.29
2019-02-17T10:39:26.709Z,44.65
2019-02-17T10:40:27.129Z,45.47
2019-02-17T10:41:26.956Z,47.54
2019-02-17T10:42:27.328Z,42.55
2019-02-17T10:43:27.292Z,43.63
2019-02-17T10:44:27.426Z,43.47
2019-02-17T10:45:28.207Z,39.39
2019-02-17T10:46:27.952Z,40.95
2019-02-17T10:47:28.233Z,42.76
2019-02-17T10:48:28.726Z,41.42
2019-02-17T10:49:28.542Z,42.82
2019-02-17T10:50:28.827Z,39.43
2019-02-17T10:51:28.968Z,39.53
2019-02-17T10:52:29.432Z,37.79
2019-02-17T10:53:29.835Z,38.13
2019-02-17T10:54:29.814Z,41.16
2019-02-17T10:55:29.817Z,38.72
2019-02-17T10:56:29.922Z,39.53
2019-02-17T10:57:30.163Z,40.02
2019-02-17T10:58:30.473Z,41.30
2019-02-17T10:59:31.843Z,37.37
2019-02-17T11:30:32.281Z,33.44
2019-02-17T11:31:32.674Z,33.10
2019-02-17T11:32:32.610Z,31.88
2019-02-17T11:33:32.827Z,31.56
2019-02-17T11:34:33.044Z,33.07
2019-02-17T11:35:33.231Z,32.46
2019-02-17T11:36:33.447Z,33.07
2019-02-17T11:37:33.668Z,31.09
2019-02-17T11:38:33.849Z,33.42
2019-02-17T11:39:34.041Z,32.63
2019-02-17T11:40:34.277Z,34.17
2019-02-17T11:41:34.494Z,34.77
2019-02-17T11:42:34.680Z,35.77
2019-02-17T11:43:34.914Z,35.06
2019-02-17T11:44:35.107Z,36.24
2019-02-17T11:45:35.319Z,36.33
2019-02-17T11:46:35.507Z,35.51
2019-02-17T11:47:35.699Z,36.20
2019-02-17T11:48:35.899Z,33.95
2019-02-17T11:49:36.129Z,34.02
2019-02-17T11:50:36.387Z,33.29
2019-02-17T11:51:36.515Z,32.30
2019-02-17T11:52:37.721Z,30.77
2019-02-17T11:53:37.888Z,31.44
2019-02-17T11:54:38.171Z,32.15
2019-02-17T11:55:38.236Z,31.67
2019-02-17T11:56:38.381Z,32.87
2019-02-17T11:57:38.567Z,33.86
2019-02-17T11:58:38.735Z,33.76
2019-02-17T11:59:38.855Z,32.04
2019-02-17T12:00:39.001Z,32.35
2019-02-17T12:01:39.193Z,32.29
2019-02-17T12:02:39.399Z,32.90
2019-02-17T12:03:39.569Z,31.33
2019-02-17T12:04:39.852Z,33.75
2019-02-17T12:05:40.184Z,32.95
2019-02-17T12:06:40.096Z,31.86
2019-02-17T12:07:40.277Z,35.66
2019-02-17T12:08:40.540Z,33.92
2019-02-17T12:09:40.699Z,32.65
2019-02-17T12:10:40.785Z,32.65
2019-02-17T12:11:40.966Z,32.43
2019-02-17T12:12:41.174Z,30.02
2019-02-17T12:13:41.313Z,32.55
2019-02-17T12:14:41.547Z,34.36
2019-02-17T12:15:41.697Z,33.95
2019-02-17T12:16:41.862Z,32.75
2019-02-17T12:17:42.017Z,33.99
2019-02-17T12:18:42.216Z,33.77
2019-02-17T12:19:42.372Z,32.58
2019-02-17T12:20:42.485Z,32.29
2019-02-17T12:21:42.645Z,32.15
2019-02-17T12:22:42.793Z,32.78
2019-02-17T12:23:42.925Z,35.11
2019-02-17T12:24:43.061Z,35.50
2019-02-17T12:25:43.214Z,34.00
2019-02-17T12:26:43.365Z,33.81
2019-02-17T12:27:43.542Z,35.33
2019-02-17T12:28:43.690Z,33.50
2019-02-17T12:29:45.116Z,35.83
2019-02-17T12:30:44.188Z,37.23
2019-02-17T12:31:44.393Z,33.39
2019-02-17T12:32:44.529Z,38.76
2019-02-17T12:33:44.702Z,35.21
2019-02-17T12:34:44.831Z,33.93
2019-02-17T12:35:45.005Z,34.25
2019-02-17T12:36:45.135Z,34.69
2019-02-17T12:37:47.293Z,36.21
2019-02-17T12:38:45.511Z,35.19
2019-02-17T12:39:45.759Z,34.69
2019-02-17T12:40:45.861Z,36.10
2019-02-17T12:41:46.076Z,34.97
2019-02-17T12:42:46.234Z,34.95
2019-02-17T12:43:46.358Z,34.84
2019-02-17T12:44:46.486Z,34.52
2019-02-17T12:45:46.686Z,34.54
2019-02-17T13:06:22.976Z,34.28
2019-02-17T13:07:24.304Z,33.97
2019-02-17T13:08:24.470Z,33.64
2019-02-17T13:09:24.871Z,32.71
2019-02-17T13:10:25.489Z,34.22
2019-02-17T13:11:25.066Z,32.59
2019-02-17T13:12:25.496Z,33.74
2019-02-17T13:13:25.923Z,30.54
2019-02-17T13:14:26.499Z,30.43
2019-02-17T13:15:26.459Z,32.26
2019-02-17T13:16:26.845Z,28.50
2019-02-17T13:17:27.178Z,26.67
2019-02-17T13:18:28.126Z,28.24
2019-02-17T13:19:26.728Z,26.52
2019-02-17T13:20:26.891Z,25.40
2019-02-17T13:21:27.938Z,26.16
2019-02-17T13:22:28.301Z,24.95
2019-02-17T13:23:27.441Z,24.13
2019-02-17T13:24:27.741Z,23.52
2019-02-17T13:25:30.212Z,24.23
2019-02-17T13:26:27.808Z,23.23
2019-02-17T13:27:27.994Z,24.42
2019-02-17T13:28:28.277Z,23.14
2019-02-17T13:29:28.276Z,22.14
2019-02-17T13:30:28.368Z,22.74
2019-02-17T13:31:29.360Z,22.53
2019-02-17T13:32:29.832Z,23.44
2019-02-17T13:33:38.750Z,24.31
2019-02-17T13:34:31.095Z,24.29
2019-02-17T13:35:29.601Z,21.82
2019-02-17T13:36:30.323Z,22.20
2019-02-17T13:37:30.319Z,22.42
2019-02-17T13:38:31.327Z,25.40
2019-02-17T13:39:30.792Z,22.33
2019-02-17T13:40:31.664Z,24.02
2019-02-17T13:41:30.950Z,23.74
2019-02-17T13:42:31.317Z,22.14
2019-02-17T13:43:32.159Z,23.56
2019-02-17T13:44:31.678Z,21.30
2019-02-17T13:45:32.115Z,22.31
2019-02-17T13:46:31.917Z,23.12
2019-02-17T13:47:32.404Z,25.11
2019-02-17T13:48:32.701Z,24.51
2019-02-17T13:49:32.650Z,23.63
2019-02-17T13:50:32.978Z,23.63
2019-02-17T13:51:33.285Z,24.71
2019-02-17T13:52:33.978Z,23.30
2019-02-17T13:53:34.476Z,23.69
2019-02-17T13:54:33.537Z,25.56
2019-02-17T13:55:34.605Z,24.27
2019-02-17T13:56:34.762Z,24.58
2019-02-17T13:57:33.817Z,23.49
2019-02-17T13:58:33.907Z,24.40
2019-02-17T13:59:34.279Z,23.33
2019-02-17T14:00:34.581Z,26.53
2019-02-17T14:01:34.677Z,26.93
2019-02-17T14:02:34.987Z,23.44
2019-02-17T14:03:35.151Z,23.77
